sensor_id;sensor_type;location;lat;lon;timestamp;pressure;altitude;pressure_sealevel;temperature;humidity
30421;BME280;17218;54.070;10.012;2022-12-16T00:00:21;100858.03;;;0.25;100.00
30421;BME280;17218;54.070;10.012;2022-12-16T00:02:48;100863.03;;;0.22;100.00
30421;BME280;17218;54.070;10.012;2022-12-16T00:05:15;100867.22;;;0.20;100.00
30421;BME280;17218;54.070;10.012;2022-12-16T00:07:41;100868.06;;;0.20;100.00
30421;BME280;17218;54.070;10.012;2022-12-16T00:10:08;100861.34;;;0.22;100.00
30421;BME280;17218;54.070;10.012;2022-12-16T00:12:36;100852.06;;;0.25;100.00
30421;BME280;17218;54.070;10.012;2022-12-16T00:15:03;100853.06;;;0.28;100.00
30421;BME280;17218;54.070;10.012;2022-12-16T00:17:30;100861.56;;;0.29;100.00
30421;BME280;17218;54.070;10.012;2022-12-16T00:19:57;100869.63;;;0.17;100.00
30421;BME280;17218;54.070;10.012;2022-12-16T00:22:24;100867.38;;;0.02;100.00
30421;BME280;17218;54.070;10.012;2022-12-16T00:24:50;100875.19;;;-0.17;100.00
30421;BME280;17218;54.070;10.012;2022-12-16T00:27:17;100876.44;;;-0.28;100.00
30421;BME280;17218;54.070;10.012;2022-12-16T00:29:45;100880.47;;;-0.33;100.00
30421;BME280;17218;54.070;10.012;2022-12-16T00:32:11;100873.03;;;-0.50;100.00
30421;BME280;17218;54.070;10.012;2022-12-16T00:34:38;100877.03;;;-0.55;100.00
30421;BME280;17218;54.070;10.012;2022-12-16T00:37:05;100876.47;;;-0.48;100.00
30421;BME280;17218;54.070;10.012;2022-12-16T00:39:31;100878.84;;;-0.31;100.00
30421;BME280;17218;54.070;10.012;2022-12-16T00:41:58;100870.63;;;-0.24;100.00
30421;BME280;17218;54.070;10.012;2022-12-16T00:44:24;100868.28;;;-0.19;100.00
30421;BME280;17218;54.070;10.012;2022-12-16T00:46:53;100871.88;;;-0.14;100.00
30421;BME280;17218;54.070;10.012;2022-12-16T00:49:19;100862.88;;;-0.06;100.00
30421;BME280;17218;54.070;10.012;2022-12-16T00:51:46;100860.47;;;-0.01;100.00
30421;BME280;17218;54.070;10.012;2022-12-16T00:54:13;100867.13;;;-0.05;100.00
30421;BME280;17218;54.070;10.012;2022-12-16T00:56:40;100874.25;;;-0.19;100.00
30421;BME280;17218;54.070;10.012;2022-12-16T00:59:07;100877.78;;;-0.37;100.00
30421;BME280;17218;54.070;10.012;2022-12-16T01:01:33;100874.00;;;-0.25;100.00
30421;BME280;17218;54.070;10.012;2022-12-16T01:04:01;100877.91;;;-0.12;100.00
30421;BME280;17218;54.070;10.012;2022-12-16T01:06:28;100874.84;;;-0.03;100.00
30421;BME280;17218;54.070;10.012;2022-12-16T01:08:54;100872.22;;;-0.05;100.00
30421;BME280;17218;54.070;10.012;2022-12-16T01:11:21;100874.03;;;-0.02;100.00
30421;BME280;17218;54.070;10.012;2022-12-16T01:13:49;100873.41;;;0.04;100.00
30421;BME280;17218;54.070;10.012;2022-12-16T01:16:16;100875.72;;;-0.03;100.00
30421;BME280;17218;54.070;10.012;2022-12-16T01:18:43;100881.00;;;-0.19;100.00
30421;BME280;17218;54.070;10.012;2022-12-16T01:21:13;100896.50;;;-0.36;100.00
30421;BME280;17218;54.070;10.012;2022-12-16T01:23:40;100900.34;;;-0.25;100.00
30421;BME280;17218;54.070;10.012;2022-12-16T01:26:06;100897.34;;;-0.14;100.00
30421;BME280;17218;54.070;10.012;2022-12-16T01:28:33;100904.41;;;-0.07;100.00
30421;BME280;17218;54.070;10.012;2022-12-16T01:31:00;100906.16;;;-0.06;100.00
30421;BME280;17218;54.070;10.012;2022-12-16T01:33:27;100911.47;;;0.01;100.00
30421;BME280;17218;54.070;10.012;2022-12-16T01:35:58;100912.78;;;0.12;100.00
30421;BME280;17218;54.070;10.012;2022-12-16T01:38:26;100917.88;;;0.12;100.00
30421;BME280;17218;54.070;10.012;2022-12-16T01:40:53;100925.47;;;0.10;100.00
30421;BME280;17218;54.070;10.012;2022-12-16T01:43:23;100913.81;;;-0.06;100.00
30421;BME280;17218;54.070;10.012;2022-12-16T01:45:50;100928.25;;;-0.05;100.00
30421;BME280;17218;54.070;10.012;2022-12-16T01:48:21;100918.81;;;-0.07;100.00
30421;BME280;17218;54.070;10.012;2022-12-16T01:50:56;100924.72;;;-0.08;100.00
30421;BME280;17218;54.070;10.012;2022-12-16T01:53:24;100927.53;;;-0.02;100.00
30421;BME280;17218;54.070;10.012;2022-12-16T01:55:54;100921.72;;;0.02;100.00
30421;BME280;17218;54.070;10.012;2022-12-16T01:58:25;100940.06;;;-0.07;100.00
30421;BME280;17218;54.070;10.012;2022-12-16T02:00:53;100922.84;;;-0.13;100.00
30421;BME280;17218;54.070;10.012;2022-12-16T02:03:19;100929.66;;;-0.13;100.00
30421;BME280;17218;54.070;10.012;2022-12-16T02:05:46;100925.81;;;-0.25;100.00
30421;BME280;17218;54.070;10.012;2022-12-16T02:08:14;100924.41;;;-0.16;100.00
30421;BME280;17218;54.070;10.012;2022-12-16T02:10:54;100946.41;;;-0.18;100.00
30421;BME280;17218;54.070;10.012;2022-12-16T02:13:31;100933.59;;;-0.20;100.00
30421;BME280;17218;54.070;10.012;2022-12-16T02:16:05;100932.13;;;-0.15;100.00
30421;BME280;17218;54.070;10.012;2022-12-16T02:18:41;100935.84;;;-0.06;100.00
30421;BME280;17218;54.070;10.012;2022-12-16T02:21:25;100940.25;;;-0.02;100.00
30421;BME280;17218;54.070;10.012;2022-12-16T02:27:29;100939.91;;;0.11;100.00
30421;BME280;17218;54.070;10.012;2022-12-16T02:30:05;100945.06;;;0.13;100.00
30421;BME280;17218;54.070;10.012;2022-12-16T02:32:43;100945.16;;;0.15;100.00
30421;BME280;17218;54.070;10.012;2022-12-16T02:35:21;100938.41;;;0.17;100.00
30421;BME280;17218;54.070;10.012;2022-12-16T02:37:56;100949.59;;;0.20;100.00
30421;BME280;17218;54.070;10.012;2022-12-16T02:40:33;100941.31;;;0.26;100.00
30421;BME280;17218;54.070;10.012;2022-12-16T02:43:06;100946.50;;;0.28;100.00
30421;BME280;17218;54.070;10.012;2022-12-16T02:45:34;100944.78;;;0.28;100.00
30421;BME280;17218;54.070;10.012;2022-12-16T02:48:04;100944.06;;;0.31;100.00
30421;BME280;17218;54.070;10.012;2022-12-16T02:50:35;100949.09;;;0.29;100.00
30421;BME280;17218;54.070;10.012;2022-12-16T02:53:08;100954.94;;;0.27;100.00
30421;BME280;17218;54.070;10.012;2022-12-16T02:55:51;100950.63;;;0.24;100.00
30421;BME280;17218;54.070;10.012;2022-12-16T02:58:23;100955.75;;;0.26;100.00
30421;BME280;17218;54.070;10.012;2022-12-16T03:00:59;100964.19;;;0.25;100.00
30421;BME280;17218;54.070;10.012;2022-12-16T03:03:36;100950.63;;;0.24;100.00
30421;BME280;17218;54.070;10.012;2022-12-16T03:06:07;100957.38;;;0.23;100.00
30421;BME280;17218;54.070;10.012;2022-12-16T03:08:38;100953.06;;;0.22;100.00
30421;BME280;17218;54.070;10.012;2022-12-16T03:11:06;100962.41;;;0.22;100.00
30421;BME280;17218;54.070;10.012;2022-12-16T03:13:38;100956.56;;;0.25;100.00
30421;BME280;17218;54.070;10.012;2022-12-16T03:16:09;100958.31;;;0.26;100.00
30421;BME280;17218;54.070;10.012;2022-12-16T03:18:41;100956.59;;;0.26;100.00
30421;BME280;17218;54.070;10.012;2022-12-16T03:21:10;100960.03;;;0.27;100.00
30421;BME280;17218;54.070;10.012;2022-12-16T03:23:42;100967.63;;;0.25;100.00
30421;BME280;17218;54.070;10.012;2022-12-16T03:26:14;100966.63;;;0.21;100.00
30421;BME280;17218;54.070;10.012;2022-12-16T03:28:46;100958.06;;;0.19;100.00
30421;BME280;17218;54.070;10.012;2022-12-16T03:31:24;100962.34;;;0.20;100.00
30421;BME280;17218;54.070;10.012;2022-12-16T03:33:58;100965.66;;;0.18;100.00
30421;BME280;17218;54.070;10.012;2022-12-16T03:36:30;100969.00;;;0.17;100.00
30421;BME280;17218;54.070;10.012;2022-12-16T03:39:00;100970.75;;;0.18;100.00
30421;BME280;17218;54.070;10.012;2022-12-16T03:41:27;100962.22;;;0.17;100.00
30421;BME280;17218;54.070;10.012;2022-12-16T03:43:55;100965.41;;;0.11;100.00
30421;BME280;17218;54.070;10.012;2022-12-16T03:46:22;100964.41;;;0.08;100.00
30421;BME280;17218;54.070;10.012;2022-12-16T03:48:50;100968.97;;;-0.06;100.00
30421;BME280;17218;54.070;10.012;2022-12-16T03:51:19;100973.13;;;-0.08;100.00
30421;BME280;17218;54.070;10.012;2022-12-16T03:53:45;100977.41;;;-0.07;100.00
30421;BME280;17218;54.070;10.012;2022-12-16T03:56:12;100980.16;;;-0.03;100.00
30421;BME280;17218;54.070;10.012;2022-12-16T03:58:39;100981.03;;;-0.02;100.00
30421;BME280;17218;54.070;10.012;2022-12-16T04:01:06;100990.50;;;0.02;100.00
30421;BME280;17218;54.070;10.012;2022-12-16T04:03:33;100990.66;;;0.05;100.00
30421;BME280;17218;54.070;10.012;2022-12-16T04:06:00;100989.88;;;0.08;100.00
30421;BME280;17218;54.070;10.012;2022-12-16T04:08:29;100990.66;;;0.05;100.00
30421;BME280;17218;54.070;10.012;2022-12-16T04:10:55;100989.81;;;0.06;100.00
30421;BME280;17218;54.070;10.012;2022-12-16T04:13:40;100991.44;;;0.04;100.00
30421;BME280;17218;54.070;10.012;2022-12-16T04:16:25;100994.50;;;-0.05;100.00
30421;BME280;17218;54.070;10.012;2022-12-16T04:19:18;100999.59;;;-0.05;100.00
30421;BME280;17218;54.070;10.012;2022-12-16T04:22:04;101000.63;;;0.01;100.00
30421;BME280;17218;54.070;10.012;2022-12-16T04:24:49;101011.03;;;0.05;100.00
30421;BME280;17218;54.070;10.012;2022-12-16T04:27:16;101005.06;;;0.05;100.00
30421;BME280;17218;54.070;10.012;2022-12-16T04:29:53;101010.16;;;0.05;100.00
30421;BME280;17218;54.070;10.012;2022-12-16T04:32:38;101017.84;;;0.06;100.00
30421;BME280;17218;54.070;10.012;2022-12-16T04:35:22;101015.41;;;0.09;100.00
30421;BME280;17218;54.070;10.012;2022-12-16T04:38:06;101022.16;;;0.07;100.00
30421;BME280;17218;54.070;10.012;2022-12-16T04:40:51;101011.13;;;0.08;100.00
30421;BME280;17218;54.070;10.012;2022-12-16T04:43:35;101016.28;;;0.10;100.00
30421;BME280;17218;54.070;10.012;2022-12-16T04:46:19;101029.91;;;0.10;100.00
30421;BME280;17218;54.070;10.012;2022-12-16T04:49:03;101028.91;;;0.07;100.00
30421;BME280;17218;54.070;10.012;2022-12-16T04:51:47;101038.34;;;0.09;100.00
30421;BME280;17218;54.070;10.012;2022-12-16T04:54:31;101046.25;;;0.16;100.00
30421;BME280;17218;54.070;10.012;2022-12-16T04:57:17;101047.25;;;0.19;100.00
30421;BME280;17218;54.070;10.012;2022-12-16T05:00:01;101044.06;;;0.25;100.00
30421;BME280;17218;54.070;10.012;2022-12-16T05:02:47;101050.06;;;0.26;100.00
30421;BME280;17218;54.070;10.012;2022-12-16T05:05:31;101038.09;;;0.25;100.00
30421;BME280;17218;54.070;10.012;2022-12-16T05:08:15;101038.03;;;0.23;100.00
30421;BME280;17218;54.070;10.012;2022-12-16T05:10:59;101031.13;;;0.20;100.00
30421;BME280;17218;54.070;10.012;2022-12-16T05:13:44;101040.41;;;0.18;100.00
30421;BME280;17218;54.070;10.012;2022-12-16T05:16:28;101034.50;;;0.19;100.00
30421;BME280;17218;54.070;10.012;2022-12-16T05:19:12;101045.56;;;0.20;100.00
30421;BME280;17218;54.070;10.012;2022-12-16T05:21:56;101046.41;;;0.20;100.00
30421;BME280;17218;54.070;10.012;2022-12-16T05:24:40;101057.44;;;0.19;100.00
30421;BME280;17218;54.070;10.012;2022-12-16T05:27:24;101064.41;;;0.23;100.00
30421;BME280;17218;54.070;10.012;2022-12-16T05:30:09;101063.47;;;0.21;100.00
30421;BME280;17218;54.070;10.012;2022-12-16T05:32:54;101070.28;;;0.22;100.00
30421;BME280;17218;54.070;10.012;2022-12-16T05:35:38;101069.50;;;0.23;100.00
30421;BME280;17218;54.070;10.012;2022-12-16T05:38:22;101078.81;;;0.23;100.00
30421;BME280;17218;54.070;10.012;2022-12-16T05:41:05;101078.69;;;0.20;100.00
30421;BME280;17218;54.070;10.012;2022-12-16T05:43:49;101082.66;;;0.13;100.00
30421;BME280;17218;54.070;10.012;2022-12-16T05:46:34;101091.13;;;0.12;100.00
30421;BME280;17218;54.070;10.012;2022-12-16T05:49:18;101085.97;;;0.10;100.00
30421;BME280;17218;54.070;10.012;2022-12-16T05:52:02;101096.16;;;0.10;100.00
30421;BME280;17218;54.070;10.012;2022-12-16T05:54:46;101096.94;;;0.09;100.00
30421;BME280;17218;54.070;10.012;2022-12-16T05:57:37;101099.44;;;0.08;100.00
30421;BME280;17218;54.070;10.012;2022-12-16T06:00:21;101096.94;;;0.09;100.00
30421;BME280;17218;54.070;10.012;2022-12-16T06:03:07;101095.88;;;0.04;100.00
30421;BME280;17218;54.070;10.012;2022-12-16T06:05:53;101101.69;;;0.00;100.00
30421;BME280;17218;54.070;10.012;2022-12-16T06:08:37;101108.44;;;-0.01;100.00
30421;BME280;17218;54.070;10.012;2022-12-16T06:11:21;101103.13;;;-0.05;100.00
30421;BME280;17218;54.070;10.012;2022-12-16T06:14:05;101109.84;;;-0.07;100.00
30421;BME280;17218;54.070;10.012;2022-12-16T06:16:50;101110.31;;;0.04;100.00
30421;BME280;17218;54.070;10.012;2022-12-16T06:19:35;101117.53;;;0.14;100.00
30421;BME280;17218;54.070;10.012;2022-12-16T06:22:33;101117.59;;;0.16;100.00
30421;BME280;17218;54.070;10.012;2022-12-16T06:25:18;101119.22;;;0.14;100.00
30421;BME280;17218;54.070;10.012;2022-12-16T06:28:02;101126.84;;;0.14;100.00
30421;BME280;17218;54.070;10.012;2022-12-16T06:30:46;101128.72;;;0.18;100.00
30421;BME280;17218;54.070;10.012;2022-12-16T06:33:30;101131.41;;;0.21;100.00
30421;BME280;17218;54.070;10.012;2022-12-16T06:36:15;101133.75;;;0.16;100.00
30421;BME280;17218;54.070;10.012;2022-12-16T06:38:59;101134.69;;;0.18;100.00
30421;BME280;17218;54.070;10.012;2022-12-16T06:41:43;101123.69;;;0.19;100.00
30421;BME280;17218;54.070;10.012;2022-12-16T06:44:27;101130.59;;;0.22;100.00
30421;BME280;17218;54.070;10.012;2022-12-16T06:47:11;101144.91;;;0.18;100.00
30421;BME280;17218;54.070;10.012;2022-12-16T06:49:57;101136.44;;;0.19;100.00
30421;BME280;17218;54.070;10.012;2022-12-16T06:52:42;101140.84;;;0.23;100.00
30421;BME280;17218;54.070;10.012;2022-12-16T06:55:32;101147.75;;;0.26;100.00
30421;BME280;17218;54.070;10.012;2022-12-16T06:58:21;101146.94;;;0.27;100.00
30421;BME280;17218;54.070;10.012;2022-12-16T07:01:05;101155.47;;;0.28;100.00
30421;BME280;17218;54.070;10.012;2022-12-16T07:03:49;101142.47;;;0.21;100.00
30421;BME280;17218;54.070;10.012;2022-12-16T07:06:33;101151.72;;;0.19;100.00
30421;BME280;17218;54.070;10.012;2022-12-16T07:09:18;101155.00;;;0.17;100.00
30421;BME280;17218;54.070;10.012;2022-12-16T07:12:03;101164.28;;;0.15;100.00
30421;BME280;17218;54.070;10.012;2022-12-16T07:14:47;101179.75;;;0.19;100.00
30421;BME280;17218;54.070;10.012;2022-12-16T07:17:31;101190.22;;;0.26;100.00
30421;BME280;17218;54.070;10.012;2022-12-16T07:20:15;101192.06;;;0.30;100.00
30421;BME280;17218;54.070;10.012;2022-12-16T07:22:59;101192.81;;;0.27;100.00
30421;BME280;17218;54.070;10.012;2022-12-16T07:25:44;101194.44;;;0.25;100.00
30421;BME280;17218;54.070;10.012;2022-12-16T07:28:28;101203.09;;;0.29;100.00
30421;BME280;17218;54.070;10.012;2022-12-16T07:31:12;101215.22;;;0.34;100.00
30421;BME280;17218;54.070;10.012;2022-12-16T07:33:56;101215.28;;;0.36;100.00
30421;BME280;17218;54.070;10.012;2022-12-16T07:36:41;101222.09;;;0.37;100.00
30421;BME280;17218;54.070;10.012;2022-12-16T07:39:25;101217.94;;;0.39;100.00
30421;BME280;17218;54.070;10.012;2022-12-16T07:42:10;101216.94;;;0.35;100.00
30421;BME280;17218;54.070;10.012;2022-12-16T07:44:54;101223.81;;;0.37;100.00
30421;BME280;17218;54.070;10.012;2022-12-16T07:47:45;101229.03;;;0.40;100.00
30421;BME280;17218;54.070;10.012;2022-12-16T07:50:29;101240.03;;;0.39;100.00
30421;BME280;17218;54.070;10.012;2022-12-16T07:53:28;101236.72;;;0.41;100.00
30421;BME280;17218;54.070;10.012;2022-12-16T07:56:13;101257.19;;;0.43;100.00
30421;BME280;17218;54.070;10.012;2022-12-16T07:58:59;101257.47;;;0.49;100.00
30421;BME280;17218;54.070;10.012;2022-12-16T08:01:43;101250.00;;;0.54;100.00
30421;BME280;17218;54.070;10.012;2022-12-16T08:04:27;101265.50;;;0.58;100.00
30421;BME280;17218;54.070;10.012;2022-12-16T08:07:11;101254.53;;;0.61;100.00
30421;BME280;17218;54.070;10.012;2022-12-16T08:09:55;101256.38;;;0.64;100.00
30421;BME280;17218;54.070;10.012;2022-12-16T08:12:39;101264.22;;;0.68;100.00
30421;BME280;17218;54.070;10.012;2022-12-16T08:15:24;101268.63;;;0.73;100.00
30421;BME280;17218;54.070;10.012;2022-12-16T08:18:08;101277.16;;;0.73;100.00
30421;BME280;17218;54.070;10.012;2022-12-16T08:20:52;101280.69;;;0.77;100.00
30421;BME280;17218;54.070;10.012;2022-12-16T08:23:37;101284.25;;;0.80;100.00
30421;BME280;17218;54.070;10.012;2022-12-16T08:26:21;101301.38;;;0.83;100.00
30421;BME280;17218;54.070;10.012;2022-12-16T08:29:04;101299.81;;;0.87;100.00
30421;BME280;17218;54.070;10.012;2022-12-16T08:31:50;101305.88;;;0.89;100.00
30421;BME280;17218;54.070;10.012;2022-12-16T08:34:34;101306.03;;;0.93;100.00
30421;BME280;17218;54.070;10.012;2022-12-16T08:37:18;101309.66;;;0.99;100.00
30421;BME280;17218;54.070;10.012;2022-12-16T08:40:02;101319.13;;;1.01;100.00
30421;BME280;17218;54.070;10.012;2022-12-16T08:42:46;101327.84;;;1.06;100.00
30421;BME280;17218;54.070;10.012;2022-12-16T08:45:30;101332.06;;;1.06;100.00
30421;BME280;17218;54.070;10.012;2022-12-16T08:48:16;101329.66;;;1.09;100.00
30421;BME280;17218;54.070;10.012;2022-12-16T08:51:08;101342.41;;;1.09;100.00
30421;BME280;17218;54.070;10.012;2022-12-16T08:53:53;101339.00;;;1.09;100.00
30421;BME280;17218;54.070;10.012;2022-12-16T08:56:37;101344.16;;;1.10;100.00
30421;BME280;17218;54.070;10.012;2022-12-16T08:59:21;101350.97;;;1.11;100.00
30421;BME280;17218;54.070;10.012;2022-12-16T09:02:05;101349.44;;;1.15;100.00
30421;BME280;17218;54.070;10.012;2022-12-16T09:04:51;101347.69;;;1.14;100.00
30421;BME280;17218;54.070;10.012;2022-12-16T09:07:34;101349.38;;;1.13;100.00
30421;BME280;17218;54.070;10.012;2022-12-16T09:10:18;101351.06;;;1.13;100.00
30421;BME280;17218;54.070;10.012;2022-12-16T09:13:06;101348.31;;;1.08;100.00
30421;BME280;17218;54.070;10.012;2022-12-16T09:15:50;101356.69;;;1.05;100.00
30421;BME280;17218;54.070;10.012;2022-12-16T09:18:34;101345.97;;;1.13;100.00
30421;BME280;17218;54.070;10.012;2022-12-16T09:21:20;101351.38;;;1.21;100.00
30421;BME280;17218;54.070;10.012;2022-12-16T09:24:04;101356.63;;;1.24;100.00
30421;BME280;17218;54.070;10.012;2022-12-16T09:26:48;101356.06;;;1.31;100.00
30421;BME280;17218;54.070;10.012;2022-12-16T09:29:32;101360.34;;;1.32;100.00
30421;BME280;17218;54.070;10.012;2022-12-16T09:32:20;101357.84;;;1.34;100.00
30421;BME280;17218;54.070;10.012;2022-12-16T09:35:04;101359.47;;;1.31;100.00
30421;BME280;17218;54.070;10.012;2022-12-16T09:37:50;101369.94;;;1.38;100.00
30421;BME280;17218;54.070;10.012;2022-12-16T09:40:30;101368.28;;;1.38;100.00
30421;BME280;17218;54.070;10.012;2022-12-16T09:43:28;101374.38;;;1.42;100.00
30421;BME280;17218;54.070;10.012;2022-12-16T09:46:20;101382.09;;;1.43;100.00
30421;BME280;17218;54.070;10.012;2022-12-16T09:49:13;101380.53;;;1.47;100.00
30421;BME280;17218;54.070;10.012;2022-12-16T09:52:01;101381.53;;;1.51;100.00
30421;BME280;17218;54.070;10.012;2022-12-16T09:54:49;101390.25;;;1.56;100.00
30421;BME280;17218;54.070;10.012;2022-12-16T09:57:34;101377.59;;;1.59;100.00
30421;BME280;17218;54.070;10.012;2022-12-16T10:00:20;101391.28;;;1.61;100.00
30421;BME280;17218;54.070;10.012;2022-12-16T10:03:13;101391.19;;;1.58;100.00
30421;BME280;17218;54.070;10.012;2022-12-16T10:06:02;101386.06;;;1.58;100.00
30421;BME280;17218;54.070;10.012;2022-12-16T10:08:54;101391.25;;;1.60;100.00
30421;BME280;17218;54.070;10.012;2022-12-16T10:11:47;101390.78;;;1.70;100.00
30421;BME280;17218;54.070;10.012;2022-12-16T10:14:39;101384.84;;;1.70;100.00
30421;BME280;17218;54.070;10.012;2022-12-16T10:17:28;101396.72;;;1.69;100.00
30421;BME280;17218;54.070;10.012;2022-12-16T10:20:15;101394.16;;;1.69;100.00
30421;BME280;17218;54.070;10.012;2022-12-16T10:23:09;101404.44;;;1.71;100.00
30421;BME280;17218;54.070;10.012;2022-12-16T10:26:16;101391.72;;;1.72;100.00
30421;BME280;17218;54.070;10.012;2022-12-16T10:29:12;101396.78;;;1.71;100.00
30421;BME280;17218;54.070;10.012;2022-12-16T10:32:03;101389.16;;;1.72;100.00
30421;BME280;17218;54.070;10.012;2022-12-16T10:34:49;101393.53;;;1.75;100.00
30421;BME280;17218;54.070;10.012;2022-12-16T10:37:36;101402.09;;;1.75;100.00
30421;BME280;17218;54.070;10.012;2022-12-16T10:40:24;101391.03;;;1.76;100.00
30421;BME280;17218;54.070;10.012;2022-12-16T10:43:13;101392.66;;;1.74;100.00
30421;BME280;17218;54.070;10.012;2022-12-16T10:46:05;101397.97;;;1.79;100.00
30421;BME280;17218;54.070;10.012;2022-12-16T10:48:49;101406.44;;;1.78;100.00
30421;BME280;17218;54.070;10.012;2022-12-16T10:51:33;101403.94;;;1.79;100.00
30421;BME280;17218;54.070;10.012;2022-12-16T10:54:31;101398.81;;;1.79;100.00
30421;BME280;17218;54.070;10.012;2022-12-16T10:57:23;101393.66;;;1.78;100.00
30421;BME280;17218;54.070;10.012;2022-12-16T11:00:13;101401.50;;;1.83;100.00
30421;BME280;17218;54.070;10.012;2022-12-16T11:03:18;101403.19;;;1.82;100.00
30421;BME280;17218;54.070;10.012;2022-12-16T11:06:02;101407.56;;;1.85;100.00
30421;BME280;17218;54.070;10.012;2022-12-16T11:08:47;101408.63;;;1.90;100.00
30421;BME280;17218;54.070;10.012;2022-12-16T11:11:31;101407.97;;;1.96;100.00
30421;BME280;17218;54.070;10.012;2022-12-16T11:14:19;101400.53;;;2.02;100.00
30421;BME280;17218;54.070;10.012;2022-12-16T11:17:12;101395.47;;;2.03;100.00
30421;BME280;17218;54.070;10.012;2022-12-16T11:20:11;101411.75;;;2.06;100.00
30421;BME280;17218;54.070;10.012;2022-12-16T11:23:13;101409.38;;;2.10;100.00
30421;BME280;17218;54.070;10.012;2022-12-16T11:26:06;101411.88;;;2.09;100.00
30421;BME280;17218;54.070;10.012;2022-12-16T11:29:07;101409.81;;;2.00;100.00
30421;BME280;17218;54.070;10.012;2022-12-16T11:31:56;101419.38;;;2.04;100.00
30421;BME280;17218;54.070;10.012;2022-12-16T11:34:42;101417.38;;;1.97;100.00
30421;BME280;17218;54.070;10.012;2022-12-16T11:37:29;101417.84;;;1.86;100.00
30421;BME280;17218;54.070;10.012;2022-12-16T11:40:16;101414.50;;;1.89;100.00
30421;BME280;17218;54.070;10.012;2022-12-16T11:43:02;101414.47;;;1.87;100.00
30421;BME280;17218;54.070;10.012;2022-12-16T11:45:48;101417.84;;;1.86;100.00
30421;BME280;17218;54.070;10.012;2022-12-16T11:48:37;101416.78;;;1.81;100.00
30421;BME280;17218;54.070;10.012;2022-12-16T11:51:25;101418.88;;;1.92;100.00
30421;BME280;17218;54.070;10.012;2022-12-16T11:54:26;101415.06;;;2.03;100.00
30421;BME280;17218;54.070;10.012;2022-12-16T11:57:18;101414.56;;;2.12;100.00
30421;BME280;17218;54.070;10.012;2022-12-16T12:00:12;101424.16;;;2.18;100.00
30421;BME280;17218;54.070;10.012;2022-12-16T12:03:03;101427.75;;;2.23;100.00
30421;BME280;17218;54.070;10.012;2022-12-16T12:05:58;101421.94;;;2.27;100.00
30421;BME280;17218;54.070;10.012;2022-12-16T12:08:50;101431.59;;;2.34;100.00
30421;BME280;17218;54.070;10.012;2022-12-16T12:11:42;101439.38;;;2.37;100.00
30421;BME280;17218;54.070;10.012;2022-12-16T12:14:33;101429.13;;;2.37;100.00
30421;BME280;17218;54.070;10.012;2022-12-16T12:17:24;101436.13;;;2.42;100.00
30421;BME280;17218;54.070;10.012;2022-12-16T12:20:31;101434.50;;;2.44;100.00
30421;BME280;17218;54.070;10.012;2022-12-16T12:23:24;101430.31;;;2.46;100.00
30421;BME280;17218;54.070;10.012;2022-12-16T12:26:21;101434.59;;;2.47;100.00
30421;BME280;17218;54.070;10.012;2022-12-16T12:29:14;101432.94;;;2.47;100.00
30421;BME280;17218;54.070;10.012;2022-12-16T12:32:06;101433.72;;;2.46;100.00
30421;BME280;17218;54.070;10.012;2022-12-16T12:34:58;101443.16;;;2.47;100.00
30421;BME280;17218;54.070;10.012;2022-12-16T12:37:53;101443.22;;;2.49;100.00
30421;BME280;17218;54.070;10.012;2022-12-16T12:40:47;101456.75;;;2.46;100.00
30421;BME280;17218;54.070;10.012;2022-12-16T12:43:43;101453.44;;;2.49;100.00
30421;BME280;17218;54.070;10.012;2022-12-16T12:46:35;101448.13;;;2.44;100.00
30421;BME280;17218;54.070;10.012;2022-12-16T12:49:28;101443.69;;;2.38;100.00
30421;BME280;17218;54.070;10.012;2022-12-16T12:52:29;101446.09;;;2.35;100.00
30421;BME280;17218;54.070;10.012;2022-12-16T12:55:21;101454.41;;;2.30;100.00
30421;BME280;17218;54.070;10.012;2022-12-16T12:58:09;101454.41;;;2.30;100.00
30421;BME280;17218;54.070;10.012;2022-12-16T13:00:56;101445.06;;;2.30;100.00
30421;BME280;17218;54.070;10.012;2022-12-16T13:03:47;101449.34;;;2.31;100.00
30421;BME280;17218;54.070;10.012;2022-12-16T13:06:33;101452.75;;;2.30;100.00
30421;BME280;17218;54.070;10.012;2022-12-16T13:09:23;101463.03;;;2.32;100.00
30421;BME280;17218;54.070;10.012;2022-12-16T13:12:25;101468.09;;;2.30;100.00
30421;BME280;17218;54.070;10.012;2022-12-16T13:15:18;101474.75;;;2.26;100.00
30421;BME280;17218;54.070;10.012;2022-12-16T13:18:27;101477.31;;;2.26;100.00
30421;BME280;17218;54.070;10.012;2022-12-16T13:21:47;101479.19;;;2.31;100.00
30421;BME280;17218;54.070;10.012;2022-12-16T13:24:44;101480.13;;;2.33;100.00
30421;BME280;17218;54.070;10.012;2022-12-16T13:27:49;101484.34;;;2.32;100.00
30421;BME280;17218;54.070;10.012;2022-12-16T13:30:36;101485.94;;;2.29;100.00
30421;BME280;17218;54.070;10.012;2022-12-16T13:33:24;101473.81;;;2.24;100.00
30421;BME280;17218;54.070;10.012;2022-12-16T13:36:09;101481.31;;;2.20;100.00
30421;BME280;17218;54.070;10.012;2022-12-16T13:38:57;101484.31;;;2.09;100.00
30421;BME280;17218;54.070;10.012;2022-12-16T13:41:58;101482.53;;;2.07;100.00
30421;BME280;17218;54.070;10.012;2022-12-16T13:45:13;101496.88;;;2.03;100.00
30421;BME280;17218;54.070;10.012;2022-12-16T13:48:01;101506.22;;;2.02;100.00
30421;BME280;17218;54.070;10.012;2022-12-16T13:50:48;101495.59;;;1.93;100.00
30421;BME280;17218;54.070;10.012;2022-12-16T13:53:38;101506.88;;;1.77;100.00
30421;BME280;17218;54.070;10.012;2022-12-16T13:56:29;101505.06;;;1.74;100.00